Time;durP1;ratioP1;P1;durP2;ratioP2;P2;SDS_P1;SDS_P2;PMS_P1;PMS_P2;Temp;Humidity;BMP_temperature;BMP_pressure;BME280_temperature;BME280_humidity;BME280_pressure;Samples;Min_cycle;Max_cycle;Signal;HPM_P1;HPM_P2
2022/02/02 00:04:48;;;;;;;5.88;2.92;;;11.50;85.90;;;;;;5031114;28;20045;-78
2022/02/02 00:09:52;;;;;;;4.18;2.50;;;11.50;86.00;;;;;;5039682;28;20391;-79
2022/02/02 00:12:37;;;;;;;3.72;2.40;;;11.50;85.80;;;;;;5039166;28;20045;-78
2022/02/02 00:15:57;;;;;;;6.25;2.70;;;11.60;86.00;;;;;;5039506;28;20398;-78
2022/02/02 00:18:03;;;;;;;3.88;2.60;;;11.60;85.80;;;;;;5038605;28;20441;-78
2022/02/02 00:20:36;;;;;;;5.35;2.70;;;11.50;85.50;;;;;;5046291;28;20045;-78
2022/02/02 00:23:06;;;;;;;5.57;2.40;;;11.60;85.90;;;;;;5038878;28;20034;-78
2022/02/02 00:25:37;;;;;;;5.25;2.90;;;11.50;85.70;;;;;;5039185;28;20385;-78
2022/02/02 00:28:05;;;;;;;5.57;2.70;;;11.40;85.60;;;;;;5039098;28;20045;-78
2022/02/02 00:30:36;;;;;;;4.40;2.40;;;11.40;86.20;;;;;;5039028;28;20033;-78
2022/02/02 00:33:16;;;;;;;4.10;2.65;;;11.40;86.30;;;;;;5038704;28;20046;-79
2022/02/02 00:35:52;;;;;;;4.50;2.40;;;11.40;86.30;;;;;;5039091;28;20391;-78
2022/02/02 00:38:18;;;;;;;5.50;2.50;;;11.40;86.10;;;;;;5038859;28;20021;-78
2022/02/02 00:40:43;;;;;;;4.38;2.67;;;11.30;86.10;;;;;;5038989;28;20088;-78
2022/02/02 00:43:09;;;;;;;4.40;2.30;;;11.20;86.20;;;;;;5038616;28;20032;-78
2022/02/02 00:45:43;;;;;;;4.70;2.70;;;11.30;86.50;;;;;;5038830;28;20537;-78
2022/02/02 00:48:10;;;;;;;3.65;2.65;;;11.30;86.50;;;;;;5038657;28;20029;-78
2022/02/02 00:50:36;;;;;;;4.45;2.83;;;11.40;86.40;;;;;;5038779;28;20021;-78
2022/02/02 00:53:02;;;;;;;4.75;2.38;;;11.30;86.50;;;;;;5038640;28;20025;-78
2022/02/02 00:55:28;;;;;;;3.30;2.05;;;11.20;86.30;;;;;;5038788;28;20053;-78
2022/02/02 00:57:53;;;;;;;5.93;3.00;;;11.20;86.70;;;;;;5038538;28;20025;-78
2022/02/02 01:00:19;;;;;;;4.53;2.35;;;11.30;87.00;;;;;;5038434;28;20437;-78
2022/02/02 01:02:46;;;;;;;6.38;2.67;;;11.30;86.50;;;;;;5055290;28;20110;-78
2022/02/02 01:05:12;;;;;;;4.38;2.58;;;11.30;86.50;;;;;;5058320;28;20124;-78
2022/02/02 01:28:10;;;;;;;2.13;1.42;;;11.30;85.90;;;;;;5057892;28;20123;-78
2022/02/02 01:30:36;;;;;;;2.22;1.33;;;11.30;85.60;;;;;;5057911;28;20044;-78
2022/02/02 01:33:02;;;;;;;2.08;1.13;;;11.20;85.50;;;;;;5057574;28;20048;-78
2022/02/02 01:35:28;;;;;;;1.92;1.10;;;11.20;85.40;;;;;;5057842;28;20036;-78
2022/02/02 01:37:56;;;;;;;2.33;1.10;;;11.10;85.00;;;;;;5057716;28;20029;-78
2022/02/02 01:40:36;;;;;;;1.48;1.00;;;11.10;85.10;;;;;;5057738;28;20031;-78
2022/02/02 01:43:07;;;;;;;1.40;1.13;;;11.20;85.20;;;;;;5056997;28;20216;-78
2022/02/02 01:45:57;;;;;;;3.67;1.10;;;11.20;85.00;;;;;;5057663;28;20040;-78
2022/02/02 01:55:45;;;;;;;2.88;1.60;;;11.20;85.50;;;;;;5057414;28;20036;-78
2022/02/02 02:00:57;;;;;;;2.33;1.55;;;11.20;85.30;;;;;;5057396;28;20147;-78
2022/02/02 02:03:23;;;;;;;3.00;1.58;;;11.20;85.60;;;;;;5057230;28;20028;-78
2022/02/02 02:05:49;;;;;;;2.13;1.40;;;11.20;85.80;;;;;;5057364;28;20029;-78
2022/02/02 02:08:15;;;;;;;2.65;1.20;;;11.10;85.60;;;;;;5057226;28;20017;-78
2022/02/02 02:10:41;;;;;;;2.85;1.38;;;11.00;85.60;;;;;;5057306;28;20452;-78
2022/02/02 02:13:16;;;;;;;2.58;1.50;;;11.00;85.60;;;;;;5055654;28;20025;-77
2022/02/02 02:15:43;;;;;;;3.20;1.10;;;10.90;86.00;;;;;;5057072;28;20028;-78
2022/02/02 02:18:09;;;;;;;2.55;1.13;;;10.90;85.60;;;;;;5057105;28;20429;-78
2022/02/02 02:20:36;;;;;;;2.90;1.50;;;11.00;85.80;;;;;;5041991;28;20075;-78
2022/02/02 02:23:01;;;;;;;2.58;1.40;;;11.00;85.80;;;;;;5036966;28;20029;-77
2022/02/02 02:25:30;;;;;;;2.88;1.30;;;11.10;85.70;;;;;;5035773;28;20534;-78
2022/02/02 02:28:07;;;;;;;2.28;1.23;;;11.10;85.40;;;;;;5037205;28;20081;-78
2022/02/02 02:38:51;;;;;;;2.75;1.50;;;11.20;85.40;;;;;;5037006;28;20036;-78
2022/02/02 02:57:59;;;;;;;4.90;1.42;;;10.90;85.30;;;;;;5041034;28;20565;-78
2022/02/02 03:29:57;;;;;;;1.95;1.55;;;10.90;85.30;;;;;;5060491;28;20036;-77
2022/02/02 04:06:28;;;;;;;2.33;1.30;;;10.90;84.10;;;;;;5059055;28;20382;-77
2022/02/02 04:08:54;;;;;;;1.95;1.13;;;10.80;84.10;;;;;;5059446;28;20025;-77
2022/02/02 04:52:05;;;;;;;2.95;1.58;;;10.80;82.60;;;;;;5038942;28;20083;-77
2022/02/02 04:54:41;;;;;;;1.33;1.00;;;10.90;83.30;;;;;;5038861;28;20022;-77
2022/02/02 05:00:46;;;;;;;2.42;1.08;;;11.00;83.00;;;;;;5038450;28;20103;-77
2022/02/02 05:11:01;;;;;;;1.75;1.20;;;10.90;83.20;;;;;;5038276;28;20109;-77
2022/02/02 05:15:25;;;;;;;1.95;1.40;;;11.00;83.60;;;;;;5053429;28;20119;-77
2022/02/02 05:43:26;;;;;;;1.17;0.80;;;10.60;84.80;;;;;;5057524;28;20044;-77
2022/02/02 05:48:33;;;;;;;1.27;0.80;;;10.70;84.70;;;;;;5057863;28;20149;-78
2022/02/02 05:51:49;;;;;;;2.45;0.90;;;10.70;84.10;;;;;;5057918;28;20025;-79
2022/02/02 05:53:48;;;;;;;3.63;0.90;;;10.80;84.40;;;;;;5056958;28;20041;-81
2022/02/02 05:56:14;;;;;;;2.10;0.70;;;10.80;84.20;;;;;;5057565;28;20025;-79
2022/02/02 05:58:40;;;;;;;5.50;1.00;;;10.80;83.70;;;;;;5057243;28;20061;-83
2022/02/02 06:01:10;;;;;;;3.85;1.20;;;10.80;83.60;;;;;;5057165;28;20086;-80
2022/02/02 06:03:41;;;;;;;;;;;10.60;83.80;;;;;;5043339;28;20041;-77
2022/02/02 06:06:08;;;;;;;3.00;0.82;;;10.70;84.00;;;;;;5037117;28;19911;-76
2022/02/02 06:08:34;;;;;;;4.47;1.00;;;10.70;83.80;;;;;;5035549;28;20021;-77
2022/02/02 06:11:04;;;;;;;1.27;0.82;;;10.70;83.80;;;;;;5037009;28;20034;-78
2022/02/02 06:13:42;;;;;;;3.10;0.90;;;10.70;83.80;;;;;;5036888;28;20018;-75
2022/02/02 06:16:08;;;;;;;3.67;1.27;;;10.70;83.70;;;;;;5035607;28;20041;-78
2022/02/02 06:18:35;;;;;;;4.15;1.00;;;10.60;83.70;;;;;;5034346;28;20519;-78
2022/02/02 06:21:05;;;;;;;4.05;1.10;;;10.70;83.40;;;;;;5038734;28;20064;-74
2022/02/02 06:23:37;;;;;;;3.72;1.00;;;10.60;83.80;;;;;;5035235;28;20079;-74
2022/02/02 06:26:09;;;;;;;2.72;1.20;;;10.70;83.50;;;;;;5037027;28;20036;-74
2022/02/02 06:28:35;;;;;;;1.98;1.10;;;10.70;83.40;;;;;;5036043;28;20021;-77
2022/02/02 06:31:05;;;;;;;3.47;1.17;;;10.70;83.00;;;;;;5036464;28;20026;-77
2022/02/02 06:33:34;;;;;;;3.45;0.82;;;10.60;82.50;;;;;;5033600;28;20081;-76
2022/02/02 06:36:01;;;;;;;4.13;0.90;;;10.60;82.00;;;;;;5035471;28;20501;-76
2022/02/02 06:38:29;;;;;;;1.83;0.85;;;10.60;82.30;;;;;;5032316;28;20388;-77
2022/02/02 06:40:57;;;;;;;1.88;0.70;;;10.70;82.40;;;;;;5032958;28;20021;-77
2022/02/02 06:43:24;;;;;;;4.15;1.13;;;10.70;81.90;;;;;;5036487;28;20506;-77
2022/02/02 06:45:54;;;;;;;3.60;1.00;;;10.80;81.80;;;;;;5035502;28;20045;-77
2022/02/02 06:48:20;;;;;;;4.28;1.10;;;10.70;81.50;;;;;;5036034;28;20076;-78
2022/02/02 06:50:57;;;;;;;3.95;0.93;;;10.70;81.40;;;;;;5035808;28;20026;-77
2022/02/02 06:53:35;;;;;;;4.40;1.45;;;10.70;81.50;;;;;;5034298;28;20044;-76
2022/02/02 07:05:06;;;;;;;2.42;1.35;;;10.60;80.70;;;;;;5034236;28;20103;-76
2022/02/02 07:16:02;;;;;;;9.32;1.77;;;10.30;80.50;;;;;;5035674;28;20108;-77
2022/02/02 07:18:41;;;;;;;3.20;1.10;;;10.30;80.70;;;;;;5034857;28;20506;-77
2022/02/02 07:26:47;;;;;;;6.07;1.60;;;10.30;80.10;;;;;;5033577;28;20029;-77
2022/02/02 07:29:19;;;;;;;6.00;1.58;;;10.30;80.50;;;;;;5018277;28;20045;-76
2022/02/02 07:32:41;;;;;;;2.30;1.50;;;10.50;80.70;;;;;;5035476;28;20022;-77
2022/02/02 07:37:36;;;;;;;3.58;1.75;;;10.50;80.60;;;;;;5033229;28;20540;-78
2022/02/02 07:40:07;;;;;;;8.55;1.50;;;10.50;80.80;;;;;;5030219;28;20033;-77
2022/02/02 07:42:33;;;;;;;3.15;1.40;;;10.60;80.40;;;;;;5017550;28;20149;-79
2022/02/02 07:45:09;;;;;;;5.38;1.48;;;10.50;80.20;;;;;;5019031;28;20032;-78
2022/02/02 07:47:43;;;;;;;10.38;1.67;;;10.50;80.40;;;;;;5019912;28;20030;-78
2022/02/02 07:50:11;;;;;;;4.10;1.90;;;10.60;80.30;;;;;;5019763;28;20025;-78
2022/02/02 07:52:38;;;;;;;4.05;1.65;;;10.60;79.90;;;;;;5051569;28;20022;-78
2022/02/02 07:55:06;;;;;;;5.00;1.73;;;10.50;80.20;;;;;;5019801;28;20022;-78
2022/02/02 07:57:32;;;;;;;5.60;2.22;;;10.50;80.60;;;;;;5020082;28;20133;-78
2022/02/02 08:00:06;;;;;;;3.80;1.50;;;10.50;79.80;;;;;;5019221;28;20018;-78
2022/02/02 08:05:02;;;;;;;6.45;1.98;;;10.40;80.00;;;;;;5019615;28;20430;-78
2022/02/02 08:07:34;;;;;;;5.63;2.15;;;10.60;80.20;;;;;;5019829;28;20018;-78
2022/02/02 08:10:11;;;;;;;6.60;2.08;;;10.50;80.00;;;;;;5019648;28;20014;-78
2022/02/02 08:12:50;;;;;;;5.30;2.15;;;10.70;80.10;;;;;;5037168;28;20022;-78
2022/02/02 08:15:18;;;;;;;5.60;2.10;;;10.70;79.70;;;;;;5039363;28;20029;-78
2022/02/02 08:17:45;;;;;;;4.72;1.70;;;10.70;79.30;;;;;;5039450;28;20104;-78
2022/02/02 08:20:11;;;;;;;3.17;1.75;;;10.80;79.60;;;;;;5050984;28;20609;-78
2022/02/02 08:22:39;;;;;;;2.90;1.73;;;10.80;79.40;;;;;;5059163;28;20033;-78
2022/02/02 08:25:10;;;;;;;5.28;2.03;;;10.80;79.10;;;;;;5059481;28;20048;-78
2022/02/02 08:27:40;;;;;;;6.90;1.60;;;10.70;79.30;;;;;;5059227;28;20029;-78
2022/02/02 08:30:11;;;;;;;5.47;1.80;;;10.70;79.20;;;;;;5057960;28;20025;-78
2022/02/02 08:32:46;;;;;;;3.08;1.60;;;10.70;79.50;;;;;;5059017;28;20132;-78
2022/02/02 08:35:12;;;;;;;4.18;1.75;;;10.60;79.70;;;;;;5058935;28;20100;-78
2022/02/02 08:37:41;;;;;;;4.25;1.88;;;10.70;79.50;;;;;;5059048;28;20041;-78
2022/02/02 08:40:21;;;;;;;3.50;1.50;;;10.80;79.80;;;;;;5058809;28;20017;-78
2022/02/02 08:42:47;;;;;;;3.05;1.58;;;10.90;79.80;;;;;;5058950;28;20028;-77
2022/02/02 08:45:24;;;;;;;4.65;1.42;;;11.00;79.40;;;;;;5058920;28;20029;-78
2022/02/02 08:47:56;;;;;;;3.95;1.60;;;10.90;79.70;;;;;;5058804;28;20443;-77
2022/02/02 08:50:29;;;;;;;2.78;1.38;;;11.00;79.70;;;;;;5058608;28;20360;-77
2022/02/02 08:53:00;;;;;;;3.63;1.30;;;11.00;79.80;;;;;;5058679;28;20140;-77
2022/02/02 08:55:53;;;;;;;3.53;1.40;;;10.80;79.30;;;;;;5058568;28;20021;-78
2022/02/02 09:00:48;;;;;;;6.97;1.88;;;11.10;79.90;;;;;;5058582;28;20534;-78
2022/02/02 09:05:58;;;;;;;2.63;1.63;;;11.00;79.50;;;;;;5058341;28;20028;-78
2022/02/02 09:08:28;;;;;;;4.85;1.65;;;11.00;79.90;;;;;;5058462;28;20028;-78
2022/02/02 09:35:09;;;;;;;3.60;1.25;;;11.40;80.40;;;;;;5058023;28;20025;-78
2022/02/02 09:37:35;;;;;;;3.38;1.50;;;11.50;80.40;;;;;;5057923;28;20562;-78
2022/02/02 09:42:55;;;;;;;4.30;1.90;;;11.10;80.80;;;;;;5049125;28;20029;-78
2022/02/02 09:45:22;;;;;;;2.30;1.73;;;11.10;80.90;;;;;;5057618;28;20467;-78
2022/02/02 09:47:57;;;;;;;6.00;2.10;;;11.20;80.30;;;;;;5057603;28;20020;-78
2022/02/02 09:50:31;;;;;;;6.30;1.63;;;11.20;79.90;;;;;;5057568;28;20052;-78
2022/02/02 09:53:00;;;;;;;4.72;1.77;;;11.20;79.40;;;;;;5057538;28;20526;-78
2022/02/02 10:05:59;;;;;;;8.57;2.00;;;11.30;77.90;;;;;;5057300;28;20035;-78
2022/02/02 10:14:14;;;;;;;6.65;2.08;;;11.30;79.00;;;;;;5037529;28;20140;-78
2022/02/02 10:16:45;;;;;;;5.63;2.83;;;11.10;78.90;;;;;;5037236;28;20029;-78
2022/02/02 10:19:16;;;;;;;10.23;1.88;;;11.00;79.90;;;;;;5040762;28;20017;-78
2022/02/02 10:21:42;;;;;;;11.00;2.85;;;11.10;79.60;;;;;;5056985;28;20113;-77
2022/02/02 10:24:08;;;;;;;6.10;1.85;;;11.10;79.30;;;;;;5056834;28;20048;-77
2022/02/02 10:26:47;;;;;;;10.50;2.28;;;11.20;79.60;;;;;;5056928;28;20025;-78
2022/02/02 10:29:17;;;;;;;8.77;3.00;;;11.10;79.20;;;;;;5057031;28;20437;-78
2022/02/02 10:31:47;;;;;;;6.82;2.60;;;11.20;79.50;;;;;;5056932;28;20030;-78
2022/02/02 10:34:17;;;;;;;;;;;11.10;79.70;;;;;;5057304;28;20044;-78
2022/02/02 10:36:44;;;;;;;10.95;2.22;;;11.10;80.10;;;;;;5056780;28;20355;-78
2022/02/02 10:39:16;;;;;;;11.18;2.58;;;11.20;79.20;;;;;;5056904;28;20028;-78
2022/02/02 10:41:58;;;;;;;4.82;2.17;;;11.30;79.90;;;;;;5056911;28;20082;-77
2022/02/02 10:44:39;;;;;;;5.28;2.10;;;11.40;79.10;;;;;;5056891;28;20024;-78
2022/02/02 10:47:29;;;;;;;11.25;3.78;;;11.50;79.00;;;;;;5056638;28;20471;-77
2022/02/02 10:50:22;;;;;;;8.10;2.70;;;11.50;79.00;;;;;;5057003;28;20160;-78
2022/02/02 10:54:00;;;;;;;6.43;2.70;;;11.50;78.40;;;;;;5056552;28;20390;-78
2022/02/02 10:56:32;;;;;;;8.50;2.20;;;11.50;79.20;;;;;;5055495;28;20045;-78
2022/02/02 11:01:45;;;;;;;8.63;2.70;;;11.40;78.40;;;;;;5057006;28;20057;-80
2022/02/02 11:06:55;;;;;;;7.43;2.50;;;11.50;78.10;;;;;;5056499;28;20063;-77
2022/02/02 11:09:21;;;;;;;5.88;2.25;;;11.40;77.60;;;;;;5072145;28;20025;-77
2022/02/02 11:11:56;;;;;;;10.00;1.80;;;11.40;77.90;;;;;;5045577;28;20021;-77
2022/02/02 11:14:39;;;;;;;6.72;1.73;;;11.50;77.60;;;;;;5036889;28;20491;-77
2022/02/02 11:17:31;;;;;;;8.95;1.90;;;11.60;77.20;;;;;;5039902;28;20075;-77
2022/02/02 11:20:03;;;;;;;9.98;1.90;;;11.70;76.40;;;;;;5050428;28;20013;-77
2022/02/02 11:22:32;;;;;;;9.38;2.67;;;11.70;76.60;;;;;;5060261;28;20082;-77
2022/02/02 11:25:04;;;;;;;9.93;2.33;;;11.80;76.50;;;;;;5059120;28;20054;-77
2022/02/02 11:27:41;;;;;;;4.63;1.50;;;11.80;76.30;;;;;;5060214;28;20032;-77
2022/02/02 11:30:08;;;;;;;5.55;1.70;;;11.80;76.70;;;;;;5060435;28;20036;-77
2022/02/02 11:32:43;;;;;;;5.78;1.70;;;11.90;76.40;;;;;;5060025;28;20037;-77
2022/02/02 11:38:23;;;;;;;8.75;1.95;;;12.00;76.60;;;;;;5060163;28;20025;-77
2022/02/02 11:41:16;;;;;;;15.38;3.35;;;12.10;76.70;;;;;;5060252;28;20494;-77
2022/02/02 11:46:39;;;;;;;6.20;1.70;;;12.20;76.30;;;;;;5060273;28;20079;-77
2022/02/02 11:49:15;;;;;;;7.95;2.45;;;12.20;76.50;;;;;;5059754;28;20013;-77
2022/02/02 11:52:12;;;;;;;8.00;2.10;;;12.20;76.20;;;;;;5059844;28;20104;-77
2022/02/02 11:54:38;;;;;;;7.95;1.83;;;12.30;75.60;;;;;;5054808;28;20048;-77
2022/02/02 11:57:10;;;;;;;7.82;1.90;;;12.20;76.20;;;;;;5059673;28;20029;-77
2022/02/02 12:00:07;;;;;;;9.82;1.90;;;12.20;75.90;;;;;;5059810;28;20067;-77
2022/02/02 12:07:49;;;;;;;9.27;2.10;;;12.20;75.20;;;;;;5059619;28;20024;-77
2022/02/02 12:10:33;;;;;;;10.25;2.50;;;12.20;75.70;;;;;;5059507;28;20043;-77
2022/02/02 13:00:10;;;;;;;15.68;2.83;;;13.00;72.90;;;;;;5019017;28;20053;-78
2022/02/02 13:02:38;;;;;;;9.82;2.38;;;12.90;72.20;;;;;;5018758;28;20439;-77
2022/02/02 13:05:05;;;;;;;10.38;3.53;;;13.00;73.10;;;;;;5018772;28;20040;-77
2022/02/02 13:07:32;;;;;;;12.70;2.55;;;13.10;72.30;;;;;;5018661;28;20022;-77
2022/02/02 13:10:00;;;;;;;8.95;2.45;;;13.10;72.40;;;;;;5018771;28;20022;-78
2022/02/02 13:12:42;;;;;;;11.93;2.70;;;13.10;71.90;;;;;;5034483;28;20033;-77
2022/02/02 13:15:18;;;;;;;11.60;3.03;;;13.10;72.00;;;;;;5038481;28;20033;-77
2022/02/02 13:20:56;;;;;;;11.05;2.55;;;13.00;72.00;;;;;;5052734;28;20456;-77
2022/02/02 13:23:55;;;;;;;12.23;2.33;;;12.80;72.00;;;;;;5057884;28;20021;-77
2022/02/02 13:26:35;;;;;;;7.80;1.98;;;12.90;72.40;;;;;;5057715;28;20055;-77
2022/02/02 13:29:14;;;;;;;16.88;4.63;;;12.80;72.80;;;;;;5057959;28;20021;-83
2022/02/02 13:32:07;;;;;;;11.60;4.03;;;13.00;71.90;;;;;;5058940;28;20082;-93
2022/02/02 13:35:06;;;;;;;9.85;3.22;;;13.00;71.90;;;;;;5057312;28;20074;-78
2022/02/02 13:57:04;;;;;;;6.65;2.08;;;13.00;71.30;;;;;;5033586;28;20559;-78
2022/02/02 14:05:25;;;;;;;12.00;3.20;;;12.90;71.40;;;;;;5040387;28;20032;-78
2022/02/02 14:32:30;;;;;;;7.13;2.47;;;13.00;71.10;;;;;;5026537;28;20060;-77
2022/02/02 14:34:56;;;;;;;7.65;2.58;;;13.00;70.80;;;;;;5026658;28;20040;-78
2022/02/02 14:37:27;;;;;;;14.82;3.63;;;13.00;71.10;;;;;;5025489;28;20489;-78
2022/02/02 14:39:59;;;;;;;10.70;2.72;;;13.00;70.80;;;;;;5024557;28;20022;-77
2022/02/02 14:42:30;;;;;;;9.15;3.40;;;13.00;70.70;;;;;;5035390;28;20034;-77
2022/02/02 14:45:02;;;;;;;7.72;3.03;;;12.90;70.30;;;;;;5033042;28;20026;-75
2022/02/02 14:47:36;;;;;;;8.27;3.10;;;12.80;71.00;;;;;;5034876;28;20041;-78
2022/02/02 15:05:25;;;;;;;12.95;3.15;;;12.90;70.70;;;;;;5039448;28;20018;-77
2022/02/02 15:16:49;;;;;;;11.55;2.53;;;12.70;70.90;;;;;;5035889;28;20037;-76
2022/02/02 15:30:33;;;;;;;7.53;2.50;;;12.30;70.80;;;;;;5039876;28;20021;-77
2022/02/02 15:32:31;;;;;;;10.13;3.20;;;12.30;71.30;;;;;;5042126;28;20065;-77
2022/02/02 15:34:59;;;;;;;11.70;3.10;;;12.40;70.80;;;;;;5039497;28;20040;-77
2022/02/02 15:40:00;;;;;;;10.25;4.32;;;12.30;71.00;;;;;;5039830;28;20021;-78
2022/02/02 15:58:28;;;;;;;9.70;4.35;;;12.40;70.80;;;;;;5036695;28;20068;-77
2022/02/02 16:06:17;;;;;;;6.03;3.05;;;12.40;71.00;;;;;;5037335;28;20044;-77
2022/02/02 16:08:45;;;;;;;14.82;4.18;;;12.40;70.90;;;;;;5037988;28;20471;-77
2022/02/02 16:38:09;;;;;;;10.85;3.13;;;12.00;71.50;;;;;;5037056;28;20106;-75
2022/02/02 16:40:36;;;;;;;8.27;3.05;;;12.00;70.80;;;;;;5040301;28;20204;-77
2022/02/02 16:45:36;;;;;;;9.52;3.75;;;11.80;71.20;;;;;;5041082;28;20115;-77
2022/02/02 16:48:02;;;;;;;10.43;3.05;;;11.90;71.60;;;;;;5040158;28;20023;-78
2022/02/02 16:50:33;;;;;;;9.95;3.28;;;11.80;71.00;;;;;;5038598;28;20018;-78
2022/02/02 16:53:05;;;;;;;9.63;2.83;;;11.80;71.50;;;;;;5040505;28;20025;-77
2022/02/02 16:58:14;;;;;;;9.30;3.50;;;11.80;71.70;;;;;;5036435;28;20033;-77
2022/02/02 17:31:17;;;;;;;8.43;4.18;;;11.30;71.40;;;;;;5035181;28;20029;-74
2022/02/02 17:33:57;;;;;;;4.50;3.15;;;11.30;71.60;;;;;;5035820;28;20515;-74
2022/02/02 18:21:16;;;;;;;7.43;4.55;;;11.00;73.00;;;;;;5026087;28;20028;-79
2022/02/02 18:28:50;;;;;;;9.93;5.70;;;11.00;73.20;;;;;;5015948;28;20029;-76
2022/02/02 18:37:02;;;;;;;6.78;5.43;;;10.80;73.60;;;;;;5015786;28;20068;-77
2022/02/02 18:48:17;;;;;;;12.02;7.22;;;10.80;73.10;;;;;;5028636;28;20113;-80
2022/02/02 18:50:43;;;;;;;10.18;6.28;;;10.60;73.30;;;;;;5014807;28;20061;-83
2022/02/02 18:58:41;;;;;;;7.95;5.95;;;10.30;73.70;;;;;;5035130;28;20406;-82
2022/02/02 19:01:34;;;;;;;10.57;6.53;;;10.10;74.20;;;;;;5035959;28;20567;-84
2022/02/02 20:09:19;;;;;;;18.13;9.80;;;9.40;75.50;;;;;;5036982;28;20875;-77
2022/02/02 20:11:36;;;;;;;14.50;8.68;;;9.50;75.50;;;;;;5023820;28;20084;-78
2022/02/02 20:14:03;;;;;;;12.85;9.35;;;9.50;75.20;;;;;;5037585;28;20063;-79
2022/02/02 20:16:29;;;;;;;13.63;8.68;;;9.60;75.20;;;;;;5037863;28;20036;-80
2022/02/02 20:18:57;;;;;;;10.65;7.47;;;9.60;75.00;;;;;;5037783;28;20030;-80
2022/02/02 20:21:27;;;;;;;14.07;7.82;;;9.70;74.90;;;;;;5033807;28;20457;-79
2022/02/02 20:23:53;;;;;;;17.08;9.63;;;9.60;75.20;;;;;;5026085;28;20026;-79
2022/02/02 20:26:22;;;;;;;14.10;8.27;;;9.60;75.40;;;;;;5016781;28;20034;-79
2022/02/02 20:28:48;;;;;;;15.07;8.20;;;9.60;75.60;;;;;;5014734;28;20026;-79
2022/02/02 20:31:15;;;;;;;13.25;7.70;;;9.60;75.70;;;;;;5032316;28;20026;-80
2022/02/02 20:33:41;;;;;;;10.60;7.80;;;9.50;76.00;;;;;;5026930;28;20049;-78
2022/02/02 20:36:09;;;;;;;14.48;8.00;;;9.50;76.00;;;;;;5019431;28;20053;-78
2022/02/02 20:38:35;;;;;;;22.90;11.45;;;9.40;76.20;;;;;;5017054;28;20041;-78
2022/02/02 20:41:02;;;;;;;25.85;11.88;;;9.40;76.00;;;;;;5021531;28;20030;-78
2022/02/02 20:43:49;;;;;;;19.23;9.32;;;9.40;76.20;;;;;;5018207;28;20045;-77
2022/02/02 20:46:29;;;;;;;16.08;8.60;;;9.30;76.20;;;;;;5024608;28;20064;-77
2022/02/02 21:08:44;;;;;;;10.77;7.72;;;9.50;76.40;;;;;;5027003;28;20523;-77
2022/02/02 21:11:21;;;;;;;12.80;7.03;;;9.50;76.40;;;;;;5025386;28;20480;-77
2022/02/02 21:13:53;;;;;;;12.00;7.22;;;9.50;76.20;;;;;;5020377;28;20090;-77
2022/02/02 21:16:26;;;;;;;12.50;8.50;;;9.50;76.20;;;;;;5022510;28;20058;-78
2022/02/02 21:18:55;;;;;;;17.23;8.55;;;9.50;76.70;;;;;;5025265;28;20055;-76
2022/02/02 21:21:24;;;;;;;13.75;7.28;;;9.50;76.90;;;;;;5028311;28;20187;-76
2022/02/02 21:28:59;;;;;;;12.40;8.25;;;9.60;76.50;;;;;;5019309;28;20029;-76
2022/02/02 21:31:25;;;;;;;14.30;7.75;;;9.60;76.40;;;;;;5022841;28;20456;-77
2022/02/02 21:33:51;;;;;;;13.95;8.25;;;9.60;76.40;;;;;;5021169;28;20061;-76
2022/02/02 21:36:18;;;;;;;15.95;8.07;;;9.50;76.90;;;;;;5033274;28;20029;-76
2022/02/02 21:39:05;;;;;;;14.20;6.93;;;9.60;76.80;;;;;;5034661;28;20037;-76
2022/02/02 21:41:35;;;;;;;13.40;6.60;;;9.60;76.90;;;;;;5036086;28;20036;-76
2022/02/02 21:44:02;;;;;;;17.53;7.40;;;9.50;77.00;;;;;;5033659;28;20028;-75
2022/02/02 21:46:28;;;;;;;13.50;6.85;;;9.50;77.10;;;;;;5022288;28;20076;-76
2022/02/02 21:48:55;;;;;;;11.15;6.13;;;9.50;77.40;;;;;;5020673;28;20030;-76
2022/02/02 21:51:45;;;;;;;12.38;6.30;;;9.60;77.20;;;;;;5020575;28;20026;-76
2022/02/02 21:54:09;;;;;;;14.60;6.47;;;9.70;76.90;;;;;;5033867;28;20037;-76
2022/02/02 21:56:35;;;;;;;11.27;6.72;;;9.70;77.00;;;;;;5022576;28;20037;-76
2022/02/02 21:59:01;;;;;;;7.75;5.88;;;9.70;77.10;;;;;;5028294;28;20555;-76
2022/02/02 22:01:27;;;;;;;13.25;7.32;;;9.60;77.00;;;;;;5035937;28;20467;-76
2022/02/02 22:03:53;;;;;;;15.70;7.47;;;9.60;77.10;;;;;;5025326;28;20030;-75
2022/02/02 22:06:19;;;;;;;11.25;7.22;;;9.60;77.30;;;;;;5029202;28;20056;-76
2022/02/02 22:08:45;;;;;;;10.90;7.30;;;9.60;77.30;;;;;;5035265;28;20056;-76
2022/02/02 22:11:11;;;;;;;10.90;6.97;;;9.60;77.40;;;;;;5021485;28;20579;-76
2022/02/02 22:13:43;;;;;;;14.65;7.20;;;9.60;77.30;;;;;;5028986;28;20043;-76
2022/02/02 22:16:12;;;;;;;11.20;6.32;;;9.60;77.30;;;;;;5030620;28;20026;-76
2022/02/02 22:18:39;;;;;;;14.25;7.28;;;9.60;77.30;;;;;;5027895;28;20079;-76
2022/02/02 22:21:05;;;;;;;13.63;8.27;;;9.70;77.30;;;;;;5028294;28;20022;-76
2022/02/02 22:23:34;;;;;;;13.32;7.45;;;9.80;77.10;;;;;;5023153;28;20037;-76
2022/02/02 22:25:59;;;;;;;12.57;8.02;;;9.90;76.80;;;;;;5027119;28;20026;-76
2022/02/02 22:28:25;;;;;;;9.05;7.07;;;9.80;76.50;;;;;;5026755;28;20026;-76
2022/02/02 22:30:51;;;;;;;13.40;7.85;;;9.80;76.80;;;;;;5026376;28;20478;-76
2022/02/02 22:33:17;;;;;;;15.30;8.73;;;9.70;77.20;;;;;;5016708;28;20054;-76
2022/02/02 22:35:42;;;;;;;12.63;8.50;;;9.70;77.00;;;;;;5016665;28;20028;-76
2022/02/02 22:38:09;;;;;;;11.93;8.02;;;9.70;76.90;;;;;;5016509;28;20037;-76
2022/02/02 22:40:35;;;;;;;15.77;9.32;;;9.60;77.70;;;;;;5033263;28;20021;-76
2022/02/02 22:43:00;;;;;;;13.15;8.00;;;9.80;77.20;;;;;;5036778;28;20033;-75
2022/02/02 22:45:27;;;;;;;14.18;8.45;;;9.70;77.30;;;;;;5035129;28;20387;-76
2022/02/02 22:47:53;;;;;;;14.07;8.52;;;9.60;77.00;;;;;;5036878;28;20032;-76
2022/02/02 22:50:21;;;;;;;17.35;8.82;;;9.70;76.70;;;;;;5036487;28;20396;-76
2022/02/02 22:52:51;;;;;;;15.43;8.98;;;9.70;77.00;;;;;;5036497;28;20384;-76
2022/02/02 22:55:18;;;;;;;13.15;8.57;;;9.70;76.70;;;;;;5036260;28;20030;-76
2022/02/02 22:57:44;;;;;;;17.55;8.60;;;9.70;76.70;;;;;;5036816;28;20029;-76
2022/02/02 23:00:16;;;;;;;13.35;8.52;;;9.60;77.10;;;;;;5036385;28;20014;-76
2022/02/02 23:05:09;;;;;;;13.90;9.00;;;9.70;77.00;;;;;;5036338;28;20021;-76
2022/02/02 23:07:35;;;;;;;13.32;9.32;;;9.70;76.90;;;;;;5036329;28;20022;-75
2022/02/02 23:10:01;;;;;;;19.38;10.52;;;9.70;76.60;;;;;;5035136;28;20021;-75
2022/02/02 23:12:28;;;;;;;15.82;9.43;;;9.80;76.40;;;;;;5024293;28;20026;-75
2022/02/02 23:14:56;;;;;;;13.75;9.30;;;9.70;76.40;;;;;;5038891;28;20103;-76
2022/02/02 23:17:23;;;;;;;12.43;9.27;;;9.60;77.00;;;;;;5040381;28;20053;-76
2022/02/02 23:19:50;;;;;;;16.05;9.35;;;9.70;76.80;;;;;;5048892;28;20025;-75
2022/02/02 23:22:20;;;;;;;13.60;8.45;;;9.60;76.90;;;;;;5060020;28;20031;-76
2022/02/02 23:24:49;;;;;;;13.93;9.02;;;9.60;76.90;;;;;;5059837;28;20060;-76
2022/02/02 23:27:17;;;;;;;14.90;8.65;;;9.60;76.80;;;;;;5060154;28;20066;-75
2022/02/02 23:29:49;;;;;;;14.02;9.05;;;9.60;76.70;;;;;;5060019;28;20055;-75
2022/02/02 23:32:17;;;;;;;13.35;8.55;;;9.70;76.70;;;;;;5046530;28;20460;-76
2022/02/02 23:34:43;;;;;;;14.15;8.98;;;9.70;76.50;;;;;;5040067;28;20021;-75
2022/02/02 23:37:09;;;;;;;14.93;10.15;;;9.70;76.40;;;;;;5038209;28;20025;-76
2022/02/02 23:39:35;;;;;;;14.52;8.90;;;9.70;76.60;;;;;;5040041;28;20030;-76
2022/02/02 23:44:26;;;;;;;15.55;9.32;;;9.70;76.40;;;;;;5040177;28;20506;-76
2022/02/02 23:46:56;;;;;;;14.57;9.30;;;9.60;76.60;;;;;;5039775;28;20025;-76
2022/02/02 23:49:34;;;;;;;20.42;10.60;;;9.60;76.70;;;;;;5039672;28;20021;-76
2022/02/02 23:52:02;;;;;;;13.73;9.50;;;9.50;77.20;;;;;;5039445;28;20044;-76
2022/02/02 23:54:33;;;;;;;15.65;8.90;;;9.50;77.10;;;;;;5038344;28;20030;-76
2022/02/02 23:57:08;;;;;;;14.85;9.35;;;9.50;77.10;;;;;;5039655;28;20066;-76
